Hanzhong, China
Current Conditions -  °F | °C
As of 5:00 AM on Sunday 26 Oct 2014 (Local Time) from ZLXY Reporting Station
Haze Haze  
Wind Chill:   Ceiling: Unl
Heat Index:   Visibility: 1.3mi
Dew Point:   Wind: 2mph
Humidity: 93%   Direction: 350°N
Pressure: 30.03"   Gusts: NA
Location:  33.13°N, 107.03°E
Report Text: ZLXY 252100Z 35001MPS 2100 BR NSC 08/07 Q1017 NOSIG
Loading
Personal Weather Stations






























Interactive Weather Map
Tropical Storm Tracking
New forecast layout! Learn more

10-Day Weather Forecast

Advertisements
Track Severe Weather on mobile